Terminal Aerodrome Forecast
Issued by NWS

Current Version | Previous Version | Text Only | Print | Product List | Glossary On
Versions: 1 2 3 4 5 6 7 8 9 10 11 12 13
000
FTUS44 KBMX 291139
TAFMGM
TAF
KMGM 291139Z 2912/3012 08004KT P6SM SCT035 OVC150
      TEMPO 2912/2915 6SM -SHRA BR BKN035 OVC150
     FM291500 13006KT 6SM -SHRA VCTS BKN035CB
     FM300000 09003KT P6SM -SHRA VCTS OVC045CB=

USA.gov is the U.S. government's official web portal to all federal, state and local government web resources and services.